createdAt,value
2023-04-17T00:00:37.691Z,39.73
2023-04-17T00:01:37.773Z,39.71
2023-04-17T00:02:37.951Z,39.71
2023-04-17T00:03:38.006Z,39.71
2023-04-17T00:04:38.098Z,39.74
2023-04-17T00:05:38.028Z,39.74
2023-04-17T00:06:38.131Z,39.74
2023-04-17T00:07:38.212Z,39.71
2023-04-17T00:08:38.293Z,39.75
2023-04-17T00:09:38.387Z,39.73
2023-04-17T00:10:38.454Z,39.72
2023-04-17T00:11:38.543Z,39.73
2023-04-17T00:12:38.661Z,39.72
2023-04-17T00:13:44.670Z,39.72
2023-04-17T00:14:38.777Z,39.74
2023-04-17T00:15:38.862Z,39.74
2023-04-17T00:16:38.975Z,39.72
2023-04-17T00:17:39.204Z,39.72
2023-04-17T00:18:39.108Z,39.74
2023-04-17T00:19:39.199Z,39.74
2023-04-17T00:20:39.285Z,39.74
2023-04-17T00:21:39.375Z,39.74
2023-04-17T00:22:39.475Z,39.74
2023-04-17T00:23:39.607Z,39.74
2023-04-17T00:24:39.645Z,39.74
2023-04-17T00:25:39.740Z,39.74
2023-04-17T00:26:39.836Z,39.74
2023-04-17T00:27:39.947Z,39.74
2023-04-17T00:28:40.046Z,39.72
2023-04-17T00:29:40.124Z,39.72
2023-04-17T00:30:40.209Z,39.72
2023-04-17T00:31:40.331Z,39.72
2023-04-17T00:32:40.416Z,39.72
2023-04-17T00:33:40.491Z,39.72
2023-04-17T00:34:40.601Z,39.74
2023-04-17T00:35:40.646Z,39.72
2023-04-17T00:36:40.744Z,39.74
2023-04-17T00:37:40.828Z,39.73
2023-04-17T00:38:40.927Z,39.72
2023-04-17T00:39:41.024Z,39.72
2023-04-17T00:40:41.103Z,39.71
2023-04-17T00:41:41.194Z,39.73
2023-04-17T00:42:41.300Z,39.73
2023-04-17T00:43:41.374Z,39.74
2023-04-17T00:44:47.766Z,39.72
2023-04-17T00:46:41.625Z,39.75
2023-04-17T00:47:41.740Z,39.75
2023-04-17T00:48:41.799Z,39.77
2023-04-17T00:49:41.890Z,39.77
2023-04-17T00:50:41.998Z,39.75
2023-04-17T00:51:42.050Z,39.75
2023-04-17T00:52:42.141Z,39.74
2023-04-17T00:53:42.308Z,39.75
2023-04-17T00:54:42.283Z,39.77
2023-04-17T00:55:42.367Z,39.74
2023-04-17T00:56:42.480Z,39.74
2023-04-17T00:57:42.548Z,39.73
2023-04-17T00:58:42.646Z,39.73
2023-04-17T00:59:42.746Z,39.75
2023-04-17T01:00:42.831Z,39.74
2023-04-17T01:01:43.032Z,39.74
2023-04-17T01:02:43.148Z,39.76
2023-04-17T01:03:43.298Z,39.75
2023-04-17T01:04:43.202Z,39.75
2023-04-17T01:05:43.278Z,39.74
2023-04-17T01:06:43.374Z,39.73
2023-04-17T01:07:43.489Z,39.75
2023-04-17T01:08:43.567Z,39.74
2023-04-17T01:09:43.652Z,39.75
2023-04-17T01:10:43.731Z,39.76
2023-04-17T01:11:43.807Z,39.74
2023-04-17T01:12:43.898Z,39.74
2023-04-17T01:13:44.004Z,39.75
2023-04-17T01:14:44.083Z,39.77
2023-04-17T01:15:50.156Z,39.74
2023-04-17T01:16:44.304Z,39.77
2023-04-17T01:17:44.400Z,39.72
2023-04-17T01:18:44.458Z,39.76
2023-04-17T01:19:44.568Z,39.75
2023-04-17T01:20:44.619Z,39.76
2023-04-17T01:21:44.713Z,39.77
2023-04-17T01:22:44.790Z,39.76
2023-04-17T01:23:44.879Z,39.77
2023-04-17T01:24:44.955Z,39.76
2023-04-17T01:25:45.047Z,39.76
2023-04-17T01:26:45.132Z,39.76
2023-04-17T01:27:45.218Z,39.74
2023-04-17T01:28:45.324Z,39.77
2023-04-17T01:29:45.462Z,39.78
2023-04-17T01:30:45.539Z,39.76
2023-04-17T01:31:45.521Z,39.76
2023-04-17T01:32:45.677Z,39.78
2023-04-17T01:33:45.678Z,39.76
2023-04-17T01:34:45.761Z,39.75
2023-04-17T01:35:45.852Z,39.76
2023-04-17T01:36:45.958Z,39.76
2023-04-17T01:37:46.015Z,39.77
2023-04-17T01:38:46.156Z,39.76
2023-04-17T01:39:46.184Z,39.76
2023-04-17T01:40:46.236Z,39.75
2023-04-17T01:41:46.322Z,39.75
2023-04-17T01:42:46.449Z,39.76
2023-04-17T01:43:46.515Z,39.76
2023-04-17T01:44:46.637Z,39.74
2023-04-17T01:45:46.785Z,39.75
2023-04-17T01:46:52.759Z,39.73
2023-04-17T01:47:46.938Z,39.77
2023-04-17T01:48:47.007Z,39.76
2023-04-17T01:49:47.041Z,39.76
2023-04-17T01:50:47.162Z,39.79
2023-04-17T01:51:47.249Z,39.78
2023-04-17T01:52:47.321Z,39.78
2023-04-17T01:53:47.423Z,39.78
2023-04-17T01:54:47.544Z,39.75
2023-04-17T01:55:47.570Z,39.76
2023-04-17T01:56:47.676Z,39.75
2023-04-17T01:57:47.731Z,39.76
2023-04-17T01:58:47.835Z,39.76
2023-04-17T01:59:47.926Z,39.76
2023-04-17T02:00:47.964Z,39.75
2023-04-17T02:01:48.074Z,39.75
2023-04-17T02:02:48.192Z,39.78
2023-04-17T02:03:48.373Z,39.77
2023-04-17T02:04:48.330Z,39.75
2023-04-17T02:05:48.404Z,39.78
2023-04-17T02:06:48.431Z,39.77
2023-04-17T02:07:48.496Z,39.75
2023-04-17T02:08:48.614Z,39.75
2023-04-17T02:09:48.668Z,39.75
2023-04-17T02:10:48.753Z,39.74
2023-04-17T02:11:48.861Z,39.73
2023-04-17T02:12:48.885Z,39.74
2023-04-17T02:13:48.986Z,39.74
2023-04-17T02:14:49.060Z,39.76
2023-04-17T02:15:49.186Z,39.75
2023-04-17T02:16:49.222Z,39.76
2023-04-17T02:17:55.270Z,39.76
2023-04-17T02:18:49.339Z,39.78
2023-04-17T02:19:49.417Z,39.76
2023-04-17T02:20:49.500Z,39.78
2023-04-17T02:21:49.603Z,39.76
2023-04-17T02:22:49.718Z,39.76
2023-04-17T02:23:49.760Z,39.78
2023-04-17T02:24:49.849Z,39.76
2023-04-17T02:25:49.945Z,39.77
2023-04-17T02:26:50.030Z,39.76
2023-04-17T02:27:50.133Z,39.77
2023-04-17T02:28:50.215Z,39.77
2023-04-17T02:29:50.309Z,39.76
2023-04-17T02:30:50.406Z,39.76
2023-04-17T02:31:50.493Z,39.77
2023-04-17T02:32:50.661Z,39.77
2023-04-17T02:33:50.674Z,39.76
2023-04-17T02:34:50.730Z,39.75
2023-04-17T02:35:50.810Z,39.75
2023-04-17T02:36:50.911Z,39.74
2023-04-17T02:37:50.978Z,39.76
2023-04-17T02:38:51.093Z,39.77
2023-04-17T02:39:51.138Z,39.75
2023-04-17T02:40:51.232Z,39.76
2023-04-17T02:41:51.320Z,39.76
2023-04-17T02:42:51.389Z,39.76
2023-04-17T02:43:51.481Z,39.77
2023-04-17T02:44:51.582Z,39.77
2023-04-17T02:45:51.670Z,39.77
2023-04-17T02:46:51.802Z,39.75
2023-04-17T02:47:51.835Z,39.74
2023-04-17T02:48:57.893Z,39.73
2023-04-17T02:49:52.013Z,39.79
2023-04-17T02:50:52.093Z,39.77
2023-04-17T02:51:52.177Z,39.77
2023-04-17T02:52:52.269Z,39.77
2023-04-17T02:53:52.361Z,39.75
2023-04-17T02:54:52.478Z,39.75
2023-04-17T02:55:52.549Z,39.76
2023-04-17T02:56:52.623Z,39.74
2023-04-17T02:57:52.697Z,39.77
2023-04-17T02:58:52.798Z,39.75
2023-04-17T02:59:52.884Z,39.74
2023-04-17T03:00:53.016Z,39.76
2023-04-17T03:01:53.100Z,39.74
2023-04-17T03:02:53.313Z,39.74
2023-04-17T03:03:53.521Z,39.73
2023-04-17T03:04:53.263Z,39.73
2023-04-17T03:05:53.350Z,39.75
2023-04-17T03:06:53.453Z,39.76
2023-04-17T03:07:53.514Z,39.76
2023-04-17T03:08:53.579Z,39.76
2023-04-17T03:09:53.667Z,39.73
2023-04-17T03:10:53.754Z,39.71
2023-04-17T03:11:53.825Z,39.68
2023-04-17T03:12:53.935Z,39.68
2023-04-17T03:13:54.013Z,39.64
2023-04-17T03:14:54.106Z,39.63
2023-04-17T03:15:54.190Z,39.64
2023-04-17T03:16:54.302Z,39.60
2023-04-17T03:17:54.403Z,39.64
2023-04-17T03:18:54.446Z,39.62
2023-04-17T03:20:00.460Z,39.61
2023-04-17T03:20:54.584Z,39.62
2023-04-17T03:21:54.671Z,39.64
2023-04-17T03:22:54.767Z,39.59
2023-04-17T03:23:54.861Z,39.58
2023-04-17T03:24:54.971Z,39.61
2023-04-17T03:25:55.016Z,39.57
2023-04-17T03:26:55.101Z,39.59
2023-04-17T03:27:55.189Z,39.57
2023-04-17T03:28:55.276Z,39.62
2023-04-17T03:29:55.360Z,39.57
2023-04-17T03:30:55.457Z,39.59
2023-04-17T03:31:55.570Z,39.54
2023-04-17T03:32:55.691Z,39.56
2023-04-17T03:33:55.722Z,39.52
2023-04-17T03:34:55.815Z,39.54
2023-04-17T03:35:55.908Z,39.54
2023-04-17T03:36:55.984Z,39.54
2023-04-17T03:37:56.093Z,39.53
2023-04-17T03:38:56.133Z,39.52
2023-04-17T03:39:56.224Z,39.53
2023-04-17T03:40:56.320Z,39.52
2023-04-17T03:41:56.432Z,39.52
2023-04-17T03:42:56.530Z,39.51
2023-04-17T03:43:56.606Z,39.51
2023-04-17T03:44:56.682Z,39.50
2023-04-17T03:45:56.801Z,39.57
2023-04-17T03:46:56.861Z,39.51
2023-04-17T03:47:57.012Z,39.50
2023-04-17T03:48:57.028Z,39.49
2023-04-17T03:49:57.127Z,39.51
2023-04-17T03:51:03.197Z,39.51
2023-04-17T03:51:57.314Z,39.53
2023-04-17T03:52:57.370Z,39.52
2023-04-17T03:53:57.467Z,39.52
2023-04-17T03:54:57.533Z,39.57
2023-04-17T03:55:57.614Z,39.51
2023-04-17T03:56:57.714Z,39.53
2023-04-17T03:57:57.782Z,39.54
2023-04-17T03:58:57.871Z,39.50
2023-04-17T03:59:57.988Z,39.50
2023-04-17T04:00:58.051Z,39.49
2023-04-17T04:01:58.240Z,39.50
2023-04-17T04:02:58.342Z,39.48
2023-04-17T04:03:58.430Z,39.50
2023-04-17T04:04:58.544Z,39.51
2023-04-17T04:05:58.523Z,39.56
2023-04-17T04:06:58.598Z,39.51
2023-04-17T04:07:58.695Z,39.48
2023-04-17T04:08:58.777Z,39.52
2023-04-17T04:09:58.863Z,39.48
2023-04-17T04:10:58.968Z,39.52
2023-04-17T04:11:59.051Z,39.47
2023-04-17T04:12:59.149Z,39.47
2023-04-17T04:13:59.223Z,39.51
2023-04-17T04:14:59.308Z,39.46
2023-04-17T04:15:59.430Z,39.47
2023-04-17T04:16:59.513Z,39.49
2023-04-17T04:17:59.637Z,39.49
2023-04-17T04:18:59.673Z,39.46
2023-04-17T04:19:59.776Z,39.50
2023-04-17T04:20:59.868Z,39.47
2023-04-17T04:22:07.043Z,39.48
2023-04-17T04:23:00.028Z,39.49
2023-04-17T04:24:00.111Z,39.50
2023-04-17T04:25:00.201Z,39.49
2023-04-17T04:26:00.278Z,39.46
2023-04-17T04:27:00.364Z,39.46
2023-04-17T04:28:00.480Z,39.46
2023-04-17T04:29:00.519Z,39.46
2023-04-17T04:30:00.619Z,39.48
2023-04-17T04:31:00.722Z,39.48
2023-04-17T04:32:00.783Z,39.45
2023-04-17T04:33:00.927Z,39.43
2023-04-17T04:34:00.991Z,39.45
2023-04-17T04:35:01.069Z,39.46
2023-04-17T04:36:01.653Z,39.43
2023-04-17T04:37:01.296Z,39.45
2023-04-17T04:38:01.362Z,39.46
2023-04-17T04:39:01.405Z,39.46
2023-04-17T04:40:01.559Z,39.45
2023-04-17T04:41:01.678Z,39.48
2023-04-17T04:42:01.692Z,39.48
2023-04-17T04:43:01.742Z,39.45
2023-04-17T04:44:01.821Z,39.46
2023-04-17T04:45:01.933Z,39.47
2023-04-17T04:46:01.983Z,39.42
2023-04-17T04:47:02.279Z,39.40
2023-04-17T04:48:02.226Z,39.44
2023-04-17T04:49:02.247Z,39.42
2023-04-17T04:50:02.401Z,39.44
2023-04-17T04:51:02.474Z,39.45
2023-04-17T04:52:02.496Z,39.46
2023-04-17T04:53:08.565Z,39.46
2023-04-17T04:54:02.673Z,39.49
2023-04-17T04:55:02.767Z,39.49
2023-04-17T04:56:02.849Z,39.48
2023-04-17T04:57:02.968Z,39.48
2023-04-17T04:58:03.020Z,39.44
2023-04-17T04:59:03.134Z,39.42
2023-04-17T05:00:03.196Z,39.45
2023-04-17T05:01:03.304Z,39.47
2023-04-17T05:02:03.428Z,39.44
2023-04-17T05:03:03.621Z,39.42
2023-04-17T05:04:03.805Z,39.42
2023-04-17T05:05:03.687Z,39.43
2023-04-17T05:06:03.702Z,39.45
2023-04-17T05:07:03.810Z,39.39
2023-04-17T05:08:03.899Z,39.41
2023-04-17T05:09:04.000Z,39.43
2023-04-17T05:10:04.034Z,39.38
2023-04-17T05:11:04.122Z,39.39
2023-04-17T05:12:04.220Z,39.45
2023-04-17T05:13:04.306Z,39.40
2023-04-17T05:14:04.396Z,39.38
2023-04-17T05:15:04.495Z,39.39
2023-04-17T05:16:04.567Z,39.39
2023-04-17T05:17:04.626Z,39.37
2023-04-17T05:18:04.715Z,39.42
2023-04-17T05:19:04.763Z,39.37
2023-04-17T05:20:04.903Z,39.35
2023-04-17T05:21:04.963Z,39.39
2023-04-17T05:22:05.051Z,39.41
2023-04-17T05:23:05.124Z,39.36
2023-04-17T05:24:11.185Z,39.37
2023-04-17T05:25:05.289Z,39.37
2023-04-17T05:26:05.378Z,39.36
2023-04-17T05:27:05.477Z,39.40
2023-04-17T05:28:05.525Z,39.40
2023-04-17T05:29:05.601Z,39.39
2023-04-17T05:30:05.702Z,39.37
2023-04-17T05:31:05.851Z,39.36
2023-04-17T05:32:05.955Z,39.37
2023-04-17T05:33:05.967Z,39.34
2023-04-17T05:34:06.031Z,39.36
2023-04-17T05:35:06.122Z,39.36
2023-04-17T05:36:06.219Z,39.36
2023-04-17T05:37:06.313Z,39.32
2023-04-17T05:38:06.403Z,39.36
2023-04-17T05:39:06.513Z,39.38
2023-04-17T05:40:06.549Z,39.34
2023-04-17T05:41:06.642Z,39.40
2023-04-17T05:42:06.725Z,39.41
2023-04-17T05:43:06.793Z,39.36
2023-04-17T05:44:06.878Z,39.36
2023-04-17T05:45:06.985Z,39.32
2023-04-17T05:46:07.069Z,39.37
2023-04-17T05:47:07.124Z,39.33
2023-04-17T05:48:07.235Z,39.38
2023-04-17T05:49:07.319Z,39.34
2023-04-17T05:50:07.378Z,39.32
2023-04-17T05:51:07.479Z,39.32
2023-04-17T05:52:07.561Z,39.33
2023-04-17T05:53:07.643Z,39.33
2023-04-17T05:54:07.736Z,39.31
2023-04-17T05:55:13.793Z,39.33
2023-04-17T05:56:07.921Z,39.41
2023-04-17T05:57:08.005Z,39.35
2023-04-17T05:58:22.645Z,39.33
2023-04-17T05:59:08.166Z,39.38
2023-04-17T06:00:08.252Z,39.34
2023-04-17T06:01:08.363Z,39.30
2023-04-17T06:02:08.561Z,39.34
2023-04-17T06:03:08.770Z,39.29
2023-04-17T06:04:08.980Z,39.29
2023-04-17T06:05:08.744Z,39.32
2023-04-17T06:06:08.744Z,39.34
2023-04-17T06:07:08.831Z,39.28
2023-04-17T06:08:08.946Z,39.29
2023-04-17T06:09:09.001Z,39.29
2023-04-17T06:10:09.087Z,39.32
2023-04-17T06:11:09.195Z,39.30
2023-04-17T06:12:09.285Z,39.29
2023-04-17T06:13:09.367Z,39.29
2023-04-17T06:14:09.475Z,39.31
2023-04-17T06:15:09.515Z,39.31
2023-04-17T06:16:09.598Z,39.28
2023-04-17T06:17:09.779Z,39.29
2023-04-17T06:18:09.777Z,39.34
2023-04-17T06:19:09.930Z,39.31
2023-04-17T06:20:09.962Z,39.29
2023-04-17T06:21:10.041Z,39.27
2023-04-17T06:22:10.131Z,39.28
2023-04-17T06:23:10.241Z,39.30
2023-04-17T06:24:10.324Z,39.29
2023-04-17T06:25:10.410Z,39.28
2023-04-17T06:26:16.504Z,39.25
2023-04-17T06:27:10.577Z,39.39
2023-04-17T06:28:10.681Z,39.29
2023-04-17T06:29:10.933Z,39.29
2023-04-17T06:30:10.849Z,39.30
2023-04-17T06:31:10.966Z,39.38
2023-04-17T06:32:11.014Z,39.31
2023-04-17T06:33:11.097Z,39.30
2023-04-17T06:34:11.192Z,39.26
2023-04-17T06:35:11.294Z,39.26
2023-04-17T06:36:11.379Z,39.28
2023-04-17T06:37:11.472Z,39.28
2023-04-17T06:38:11.575Z,39.30
2023-04-17T06:39:11.788Z,39.27
2023-04-17T06:40:11.702Z,39.29
2023-04-17T06:41:11.795Z,39.32
2023-04-17T06:42:12.008Z,39.31
2023-04-17T06:43:11.964Z,39.31
2023-04-17T06:44:12.012Z,39.29
2023-04-17T06:45:12.101Z,39.26
2023-04-17T06:46:12.244Z,39.31
2023-04-17T06:47:12.332Z,39.28
2023-04-17T06:48:12.406Z,39.23
2023-04-17T06:49:12.768Z,39.27
2023-04-17T06:50:12.574Z,39.27
2023-04-17T06:51:12.626Z,39.23
2023-04-17T06:52:12.729Z,39.27
2023-04-17T06:53:12.818Z,39.25
2023-04-17T06:54:12.908Z,39.31
2023-04-17T06:55:13.034Z,39.27
2023-04-17T06:56:13.108Z,39.23
2023-04-17T06:57:19.170Z,39.24
2023-04-17T06:58:13.282Z,39.26
2023-04-17T06:59:13.647Z,39.26
2023-04-17T07:00:13.464Z,39.31
2023-04-17T07:01:13.597Z,39.27
2023-04-17T07:02:13.856Z,39.28
2023-04-17T07:04:13.811Z,39.29
2023-04-17T07:05:13.947Z,39.29
2023-04-17T07:06:13.964Z,39.27
2023-04-17T07:07:14.000Z,39.25
2023-04-17T07:08:14.074Z,39.32
2023-04-17T07:09:14.405Z,39.27
2023-04-17T07:10:14.258Z,39.30
2023-04-17T07:11:15.148Z,39.29
2023-04-17T07:12:14.449Z,39.27
2023-04-17T07:13:14.537Z,39.30
2023-04-17T07:14:14.641Z,39.28
2023-04-17T07:15:14.757Z,39.28
2023-04-17T07:16:14.836Z,39.24
2023-04-17T07:17:14.894Z,39.23
2023-04-17T07:18:14.968Z,39.19
2023-04-17T07:19:15.077Z,39.22
2023-04-17T07:20:15.110Z,39.22
2023-04-17T07:21:15.198Z,39.20
2023-04-17T07:22:15.286Z,39.19
2023-04-17T07:23:15.395Z,39.23
2023-04-17T07:24:15.512Z,39.22
2023-04-17T07:25:15.545Z,39.24
2023-04-17T07:26:15.628Z,39.24
2023-04-17T07:27:15.765Z,39.28
2023-04-17T07:28:21.788Z,39.26
2023-04-17T07:30:30.673Z,39.20
2023-04-17T07:31:31.766Z,39.47
2023-04-17T07:32:31.873Z,39.38
2023-04-17T07:33:31.925Z,39.35
2023-04-17T07:34:32.021Z,39.36
2023-04-17T07:35:32.148Z,39.28
2023-04-17T07:36:32.206Z,39.19
2023-04-17T07:37:32.294Z,38.97
2023-04-17T07:38:32.370Z,38.95
2023-04-17T07:39:32.507Z,38.97
2023-04-17T07:40:32.588Z,38.91
2023-04-17T07:41:32.663Z,38.97
2023-04-17T07:42:32.729Z,38.97
2023-04-17T07:43:32.803Z,39.02
2023-04-17T07:44:32.885Z,39.03
2023-04-17T07:45:32.990Z,39.04
2023-04-17T07:46:33.103Z,39.09
2023-04-17T07:47:33.165Z,39.10
2023-04-17T07:48:33.237Z,39.12
2023-04-17T07:49:33.320Z,39.18
2023-04-17T07:50:33.411Z,39.19
2023-04-17T07:51:33.464Z,39.19
2023-04-17T07:52:33.572Z,39.19
2023-04-17T07:53:33.615Z,39.19
2023-04-17T07:54:33.695Z,39.18
2023-04-17T07:55:33.790Z,39.12
2023-04-17T07:56:33.887Z,39.09
2023-04-17T07:57:33.998Z,39.09
2023-04-17T07:58:34.058Z,39.07
2023-04-17T07:59:34.122Z,39.03
2023-04-17T08:00:34.221Z,39.06
2023-04-17T08:01:40.309Z,39.05
2023-04-17T08:02:34.511Z,39.11
2023-04-17T08:03:34.715Z,39.07
2023-04-17T08:04:34.838Z,39.05
2023-04-17T08:05:34.611Z,39.04
2023-04-17T08:06:34.704Z,39.03
2023-04-17T08:07:34.805Z,39.00
2023-04-17T08:08:34.879Z,39.02
2023-04-17T08:09:34.997Z,39.05
2023-04-17T08:10:35.057Z,39.03
2023-04-17T08:11:40.090Z,39.01
2023-04-17T08:12:35.223Z,39.12
2023-04-17T08:13:35.297Z,39.07
2023-04-17T08:14:35.401Z,39.09
2023-04-17T08:15:36.516Z,39.04
2023-04-17T08:16:35.647Z,39.14
2023-04-17T08:17:35.714Z,39.09
2023-04-17T08:18:35.775Z,39.13
2023-04-17T08:19:35.832Z,39.08
2023-04-17T08:20:35.946Z,39.14
2023-04-17T08:21:35.982Z,39.11
2023-04-17T08:22:36.067Z,39.15
2023-04-17T08:23:36.158Z,39.19
2023-04-17T08:24:36.245Z,39.20
2023-04-17T08:25:36.338Z,39.24
2023-04-17T08:26:36.445Z,39.23
2023-04-17T08:27:36.492Z,39.24
2023-04-17T08:28:36.582Z,39.24
2023-04-17T08:29:36.682Z,39.24
2023-04-17T08:30:36.788Z,39.25
2023-04-17T08:31:36.883Z,39.28
2023-04-17T08:32:43.322Z,39.28
2023-04-17T08:33:37.010Z,39.29
2023-04-17T08:34:37.091Z,39.30
2023-04-17T08:35:37.226Z,39.23
2023-04-17T08:36:37.281Z,39.23
2023-04-17T08:37:37.364Z,39.12
2023-04-17T08:38:37.468Z,39.10
2023-04-17T08:39:37.527Z,39.10
2023-04-17T08:40:37.618Z,39.09
2023-04-17T08:41:37.710Z,39.04
2023-04-17T08:42:37.808Z,39.09
2023-04-17T08:43:37.952Z,39.12
2023-04-17T08:44:37.992Z,39.22
2023-04-17T08:45:38.074Z,39.14
2023-04-17T08:46:38.398Z,39.10
2023-04-17T08:47:38.307Z,39.11
2023-04-17T08:48:38.310Z,39.12
2023-04-17T08:49:38.417Z,39.12
2023-04-17T08:50:38.581Z,39.05
2023-04-17T08:51:38.593Z,39.11
2023-04-17T08:52:38.688Z,39.08
2023-04-17T08:53:38.751Z,38.92
2023-04-17T08:54:38.887Z,38.99
2023-04-17T08:55:38.912Z,38.97
2023-04-17T08:56:39.027Z,39.05
2023-04-17T08:57:39.087Z,39.03
2023-04-17T08:58:39.163Z,39.03
2023-04-17T08:59:39.250Z,39.06
2023-04-17T09:00:39.331Z,39.11
2023-04-17T09:01:39.456Z,39.09
2023-04-17T09:02:39.596Z,39.09
2023-04-17T09:03:45.656Z,39.11
2023-04-17T09:04:39.879Z,39.17
2023-04-17T09:05:39.762Z,39.12
2023-04-17T09:06:39.954Z,39.04
2023-04-17T09:07:39.964Z,39.05
2023-04-17T09:08:40.060Z,39.03
2023-04-17T09:09:40.118Z,39.02
2023-04-17T09:10:40.184Z,38.96
2023-04-17T09:11:40.262Z,39.02
2023-04-17T09:12:40.350Z,38.97
2023-04-17T09:13:40.466Z,38.98
2023-04-17T09:14:40.528Z,39.01
2023-04-17T09:15:40.662Z,39.11
2023-04-17T09:16:40.766Z,39.13
2023-04-17T09:17:40.826Z,39.11
2023-04-17T09:18:40.879Z,39.17
2023-04-17T09:19:40.938Z,39.17
2023-04-17T09:20:40.992Z,39.25
2023-04-17T09:21:41.082Z,39.26
2023-04-17T09:22:41.154Z,39.31
2023-04-17T09:23:41.255Z,39.20
2023-04-17T09:24:41.314Z,39.09
2023-04-17T09:25:41.457Z,39.13
2023-04-17T09:26:41.491Z,39.05
2023-04-17T09:27:41.540Z,39.07
2023-04-17T09:28:41.641Z,39.01
2023-04-17T09:29:41.731Z,39.02
2023-04-17T09:30:41.785Z,39.05
2023-04-17T09:31:41.944Z,38.98
2023-04-17T09:32:42.085Z,39.00
2023-04-17T09:33:42.085Z,39.02
2023-04-17T09:34:48.137Z,39.00
2023-04-17T09:35:42.256Z,38.96
2023-04-17T09:36:42.358Z,38.90
2023-04-17T09:37:42.446Z,38.92
2023-04-17T09:38:42.533Z,38.90
2023-04-17T09:39:42.619Z,38.88
2023-04-17T09:40:42.703Z,38.86
2023-04-17T09:41:42.819Z,38.90
2023-04-17T09:42:42.874Z,38.89
2023-04-17T09:43:42.959Z,38.89
2023-04-17T09:44:43.078Z,38.87
2023-04-17T09:45:43.156Z,38.89
2023-04-17T09:46:43.252Z,38.93
2023-04-17T09:47:43.358Z,38.90
2023-04-17T09:48:43.402Z,38.93
2023-04-17T09:49:43.512Z,38.90
2023-04-17T09:50:43.593Z,38.84
2023-04-17T09:51:43.734Z,38.88
2023-04-17T09:52:43.821Z,38.93
2023-04-17T09:53:43.933Z,38.89
2023-04-17T09:54:43.937Z,38.92
2023-04-17T09:55:44.018Z,38.74
2023-04-17T09:56:44.155Z,38.81
2023-04-17T09:57:44.728Z,38.80
2023-04-17T09:58:44.308Z,38.86
2023-04-17T09:59:44.363Z,38.83
2023-04-17T10:00:44.530Z,38.67
2023-04-17T10:01:44.539Z,38.81
2023-04-17T10:02:44.770Z,38.78
2023-04-17T10:03:44.787Z,38.95
2023-04-17T10:04:44.799Z,38.93
2023-04-17T10:05:50.841Z,38.86
2023-04-17T10:06:44.888Z,38.65
2023-04-17T10:07:44.952Z,38.63
2023-04-17T10:08:45.038Z,38.62
2023-04-17T10:09:45.150Z,38.83
2023-04-17T10:10:45.235Z,38.86
2023-04-17T10:11:45.260Z,38.62
2023-04-17T10:12:45.395Z,38.62
2023-04-17T10:13:45.448Z,38.87
2023-04-17T10:14:45.542Z,38.72
2023-04-17T10:15:45.635Z,38.92
2023-04-17T10:16:45.752Z,38.99
2023-04-17T10:17:45.863Z,39.07
2023-04-17T10:18:45.884Z,38.99
2023-04-17T10:19:45.973Z,39.07
2023-04-17T10:20:46.092Z,39.11
2023-04-17T10:21:46.160Z,39.20
2023-04-17T10:22:46.251Z,39.15
2023-04-17T10:23:46.326Z,39.26
2023-04-17T10:24:46.427Z,39.19
2023-04-17T10:25:46.526Z,39.20
2023-04-17T10:26:46.636Z,39.27
2023-04-17T10:27:46.682Z,39.25
2023-04-17T10:28:46.993Z,39.23
2023-04-17T10:29:46.874Z,39.23
2023-04-17T10:30:46.950Z,39.28
2023-04-17T10:31:47.095Z,39.27
2023-04-17T10:32:47.185Z,39.26
2023-04-17T10:33:47.255Z,39.26
2023-04-17T10:34:47.309Z,39.27
2023-04-17T10:35:47.370Z,39.15
2023-04-17T10:36:53.894Z,39.02
2023-04-17T10:37:47.527Z,38.91
2023-04-17T10:38:47.610Z,38.81
2023-04-17T10:39:47.706Z,38.97
2023-04-17T10:40:47.822Z,38.99
2023-04-17T10:41:47.990Z,38.64
2023-04-17T10:42:48.040Z,39.01
2023-04-17T10:43:48.085Z,38.72
2023-04-17T10:44:48.177Z,38.93
2023-04-17T10:45:48.332Z,38.88
2023-04-17T10:46:48.353Z,38.98
2023-04-17T10:47:48.463Z,38.82
2023-04-17T10:48:48.567Z,38.93
2023-04-17T10:49:48.594Z,39.03
2023-04-17T10:50:48.680Z,39.00
2023-04-17T10:51:48.769Z,38.76
2023-04-17T10:52:48.846Z,39.02
2023-04-17T10:53:48.960Z,39.14
2023-04-17T10:54:49.036Z,38.82
2023-04-17T10:55:49.099Z,39.13
2023-04-17T10:56:49.197Z,39.07
2023-04-17T10:57:49.286Z,38.64
2023-04-17T10:58:49.391Z,38.60
2023-04-17T10:59:49.454Z,38.55
2023-04-17T11:00:49.542Z,38.56
2023-04-17T11:01:49.690Z,38.92
2023-04-17T11:02:49.829Z,38.63
2023-04-17T11:03:49.831Z,38.88
2023-04-17T11:04:50.022Z,39.01
2023-04-17T11:05:50.005Z,38.66
2023-04-17T11:06:50.103Z,38.75
2023-04-17T11:07:56.181Z,38.60
2023-04-17T11:08:50.302Z,38.69
2023-04-17T11:09:50.390Z,38.88
2023-04-17T11:10:50.511Z,38.73
2023-04-17T11:11:50.598Z,38.76
2023-04-17T11:12:50.675Z,38.60
2023-04-17T11:13:50.765Z,38.76
2023-04-17T11:14:50.871Z,38.72
2023-04-17T11:15:50.978Z,38.88
2023-04-17T11:16:51.056Z,38.68
2023-04-17T11:17:51.192Z,38.69
2023-04-17T11:18:51.206Z,38.80
2023-04-17T11:19:51.298Z,38.70
2023-04-17T11:20:51.383Z,38.71
2023-04-17T11:21:51.486Z,38.87
2023-04-17T11:22:51.534Z,38.62
2023-04-17T11:23:51.628Z,38.65
2023-04-17T11:24:51.729Z,38.78
2023-04-17T11:25:51.778Z,38.66
2023-04-17T11:26:51.854Z,38.85
2023-04-17T11:27:51.970Z,38.67
2023-04-17T11:28:52.023Z,38.80
2023-04-17T11:29:52.126Z,38.79
2023-04-17T11:30:52.247Z,38.81
2023-04-17T11:31:52.508Z,38.53
2023-04-17T11:32:52.436Z,38.88
2023-04-17T11:33:52.582Z,38.55
2023-04-17T11:34:52.613Z,38.83
2023-04-17T11:35:52.729Z,38.56
2023-04-17T11:36:52.791Z,38.96
2023-04-17T11:37:52.891Z,38.64
2023-04-17T11:38:59.407Z,38.92
2023-04-17T11:39:53.030Z,38.64
2023-04-17T11:40:53.137Z,38.56
2023-04-17T11:41:53.207Z,38.53
2023-04-17T11:42:53.303Z,38.59
2023-04-17T11:43:53.393Z,38.58
2023-04-17T11:44:53.500Z,38.57
2023-04-17T11:45:53.609Z,38.59
2023-04-17T11:46:53.673Z,38.59
2023-04-17T11:47:53.761Z,38.69
2023-04-17T11:48:53.861Z,38.60
2023-04-17T11:49:53.981Z,38.60
2023-04-17T11:50:54.035Z,38.60
2023-04-17T11:51:54.136Z,38.63
2023-04-17T11:52:54.259Z,38.67
2023-04-17T11:53:54.323Z,38.64
2023-04-17T11:54:54.418Z,38.65
2023-04-17T11:55:54.538Z,38.63
2023-04-17T11:56:54.561Z,38.75
2023-04-17T11:57:54.650Z,38.69
2023-04-17T11:58:54.745Z,38.78
2023-04-17T11:59:54.818Z,38.66
2023-04-17T12:00:54.917Z,38.71
2023-04-17T12:01:55.041Z,38.67
2023-04-17T12:02:55.211Z,38.72
2023-04-17T12:03:55.320Z,38.76
2023-04-17T12:04:55.399Z,38.75
2023-04-17T12:05:55.512Z,38.76
2023-04-17T12:06:56.232Z,38.73
2023-04-17T12:07:55.558Z,38.69
2023-04-17T12:08:55.681Z,38.66
2023-04-17T12:10:01.737Z,38.61
2023-04-17T12:10:55.838Z,38.62
2023-04-17T12:11:55.940Z,38.63
2023-04-17T12:12:56.008Z,38.62
2023-04-17T12:13:56.095Z,38.61
2023-04-17T12:14:56.185Z,38.64
2023-04-17T12:15:56.296Z,38.68
2023-04-17T12:16:56.372Z,38.65
2023-04-17T12:17:56.552Z,38.67
2023-04-17T12:18:56.541Z,38.69
2023-04-17T12:19:56.639Z,38.70
2023-04-17T12:20:56.796Z,38.77
2023-04-17T12:21:56.864Z,39.01
2023-04-17T12:22:56.926Z,38.85
2023-04-17T12:23:57.002Z,38.88
2023-04-17T12:24:57.805Z,38.80
2023-04-17T12:25:57.172Z,38.90
2023-04-17T12:26:57.285Z,38.83
2023-04-17T12:27:57.422Z,38.95
2023-04-17T12:28:57.427Z,38.96
2023-04-17T12:29:57.510Z,38.93
2023-04-17T12:30:57.594Z,38.97
2023-04-17T12:31:57.768Z,39.14
2023-04-17T12:32:57.819Z,39.02
2023-04-17T12:33:57.849Z,38.99
2023-04-17T12:34:57.967Z,39.26
2023-04-17T12:35:58.067Z,39.06
2023-04-17T12:36:58.119Z,39.27
2023-04-17T12:37:58.169Z,39.38
2023-04-17T12:38:58.256Z,39.06
2023-04-17T12:39:58.349Z,39.20
2023-04-17T12:41:04.970Z,39.21
2023-04-17T12:41:58.522Z,39.15
2023-04-17T12:42:58.626Z,39.09
2023-04-17T12:43:58.699Z,39.11
2023-04-17T12:44:58.791Z,38.93
2023-04-17T12:45:58.886Z,38.86
2023-04-17T12:46:58.976Z,38.77
2023-04-17T12:47:59.139Z,38.79
2023-04-17T12:48:59.150Z,38.79
2023-04-17T12:49:59.242Z,38.77
2023-04-17T12:50:59.329Z,38.79
2023-04-17T12:52:01.023Z,38.78
2023-04-17T12:52:59.529Z,38.81
2023-04-17T12:53:59.624Z,38.96
2023-04-17T12:54:59.680Z,39.07
2023-04-17T12:55:59.764Z,38.88
2023-04-17T12:56:59.873Z,39.05